sensor_id;sensor_type;location;lat;lon;timestamp;temperature;humidity
54946;DHT22;40846;44.788;20.486;2022-09-13T00:08:24;435.70;2355.20
54946;DHT22;40846;44.788;20.486;2022-09-13T00:10:49;435.60;2355.20
54946;DHT22;40846;44.788;20.486;2022-09-13T00:13:16;435.60;2355.20
54946;DHT22;40846;44.788;20.486;2022-09-13T00:15:47;435.50;2355.20
54946;DHT22;40846;44.788;20.486;2022-09-13T00:18:14;435.50;2355.20
54946;DHT22;40846;44.788;20.486;2022-09-13T00:20:40;435.50;2355.20
54946;DHT22;40846;44.788;20.486;2022-09-13T00:23:08;435.50;2355.20
54946;DHT22;40846;44.788;20.486;2022-09-13T00:25:35;435.50;2355.20
54946;DHT22;40846;44.788;20.486;2022-09-13T00:28:01;435.50;2355.20
54946;DHT22;40846;44.788;20.486;2022-09-13T00:30:32;435.60;2355.20
54946;DHT22;40846;44.788;20.486;2022-09-13T00:32:59;435.60;2355.20
54946;DHT22;40846;44.788;20.486;2022-09-13T00:35:29;435.60;2355.20
54946;DHT22;40846;44.788;20.486;2022-09-13T00:37:55;435.70;2355.20
54946;DHT22;40846;44.788;20.486;2022-09-13T00:40:20;435.70;2355.20
54946;DHT22;40846;44.788;20.486;2022-09-13T00:42:46;435.70;2355.20
54946;DHT22;40846;44.788;20.486;2022-09-13T00:45:17;435.70;2355.20
54946;DHT22;40846;44.788;20.486;2022-09-13T00:48:01;435.70;2355.20
54946;DHT22;40846;44.788;20.486;2022-09-13T00:50:39;435.70;2355.20
54946;DHT22;40846;44.788;20.486;2022-09-13T00:53:13;435.60;2355.20
54946;DHT22;40846;44.788;20.486;2022-09-13T00:55:48;435.80;2355.20
54946;DHT22;40846;44.788;20.486;2022-09-13T00:58:39;435.70;2355.20
54946;DHT22;40846;44.788;20.486;2022-09-13T01:01:04;435.70;2355.20
54946;DHT22;40846;44.788;20.486;2022-09-13T01:03:34;435.60;2355.20
54946;DHT22;40846;44.788;20.486;2022-09-13T01:06:06;435.70;2355.20
54946;DHT22;40846;44.788;20.486;2022-09-13T01:08:34;435.60;2355.20
54946;DHT22;40846;44.788;20.486;2022-09-13T01:11:02;435.60;2355.20
54946;DHT22;40846;44.788;20.486;2022-09-13T01:13:35;435.60;2355.20
54946;DHT22;40846;44.788;20.486;2022-09-13T01:16:01;435.50;2355.20
54946;DHT22;40846;44.788;20.486;2022-09-13T01:18:26;435.50;2355.20
54946;DHT22;40846;44.788;20.486;2022-09-13T01:32:47;435.50;2355.20
54946;DHT22;40846;44.788;20.486;2022-09-13T01:46:38;435.40;2355.20
54946;DHT22;40846;44.788;20.486;2022-09-13T01:49:20;435.30;2355.20
54946;DHT22;40846;44.788;20.486;2022-09-13T01:51:53;435.30;2355.20
54946;DHT22;40846;44.788;20.486;2022-09-13T01:57:12;435.30;2355.20
54946;DHT22;40846;44.788;20.486;2022-09-13T01:59:52;435.30;2355.20
54946;DHT22;40846;44.788;20.486;2022-09-13T02:02:30;435.20;2355.20
54946;DHT22;40846;44.788;20.486;2022-09-13T02:05:02;435.20;2355.20
54946;DHT22;40846;44.788;20.486;2022-09-13T02:07:41;435.20;2355.20
54946;DHT22;40846;44.788;20.486;2022-09-13T02:10:32;435.20;2355.20
54946;DHT22;40846;44.788;20.486;2022-09-13T02:13:01;435.20;2355.20
54946;DHT22;40846;44.788;20.486;2022-09-13T02:15:44;435.20;2355.20
54946;DHT22;40846;44.788;20.486;2022-09-13T02:18:33;410.50;2355.20
54946;DHT22;40846;44.788;20.486;2022-09-13T02:21:15;410.50;2355.20
54946;DHT22;40846;44.788;20.486;2022-09-13T02:23:45;410.40;2355.20
54946;DHT22;40846;44.788;20.486;2022-09-13T02:26:13;410.40;2355.20
54946;DHT22;40846;44.788;20.486;2022-09-13T02:28:44;410.40;2355.20
54946;DHT22;40846;44.788;20.486;2022-09-13T02:31:14;410.40;2355.20
54946;DHT22;40846;44.788;20.486;2022-09-13T02:33:44;410.40;2355.20
54946;DHT22;40846;44.788;20.486;2022-09-13T02:36:15;410.40;2355.20
54946;DHT22;40846;44.788;20.486;2022-09-13T02:39:08;410.40;2355.20
54946;DHT22;40846;44.788;20.486;2022-09-13T02:44:38;410.30;2355.20
54946;DHT22;40846;44.788;20.486;2022-09-13T02:52:49;410.30;2355.20
54946;DHT22;40846;44.788;20.486;2022-09-13T02:55:19;410.40;2355.20
54946;DHT22;40846;44.788;20.486;2022-09-13T03:00:11;410.40;2355.20
54946;DHT22;40846;44.788;20.486;2022-09-13T03:02:38;410.40;2355.20
54946;DHT22;40846;44.788;20.486;2022-09-13T03:05:05;410.40;2355.20
54946;DHT22;40846;44.788;20.486;2022-09-13T03:07:31;410.40;2355.20
54946;DHT22;40846;44.788;20.486;2022-09-13T03:10:10;410.40;2355.20
54946;DHT22;40846;44.788;20.486;2022-09-13T03:15:27;410.40;2355.20
54946;DHT22;40846;44.788;20.486;2022-09-13T03:18:16;410.30;2355.20
54946;DHT22;40846;44.788;20.486;2022-09-13T03:31:54;410.00;2355.20
54946;DHT22;40846;44.788;20.486;2022-09-13T03:34:46;410.00;2355.20
54946;DHT22;40846;44.788;20.486;2022-09-13T03:37:26;410.10;2355.20
54946;DHT22;40846;44.788;20.486;2022-09-13T03:40:33;410.00;2355.20
54946;DHT22;40846;44.788;20.486;2022-09-13T03:43:30;410.10;2355.20
54946;DHT22;40846;44.788;20.486;2022-09-13T03:46:03;410.00;2355.20
54946;DHT22;40846;44.788;20.486;2022-09-13T03:48:33;410.00;2355.20
54946;DHT22;40846;44.788;20.486;2022-09-13T03:51:00;410.00;2355.20
54946;DHT22;40846;44.788;20.486;2022-09-13T03:53:28;410.00;2355.20
54946;DHT22;40846;44.788;20.486;2022-09-13T03:55:54;410.10;2355.20
54946;DHT22;40846;44.788;20.486;2022-09-13T03:58:21;410.00;2355.20
54946;DHT22;40846;44.788;20.486;2022-09-13T04:00:47;410.00;2355.20
54946;DHT22;40846;44.788;20.486;2022-09-13T04:12:59;409.90;2355.20
54946;DHT22;40846;44.788;20.486;2022-09-13T04:15:25;409.80;2355.20
54946;DHT22;40846;44.788;20.486;2022-09-13T04:17:51;409.80;2355.20
54946;DHT22;40846;44.788;20.486;2022-09-13T04:20:17;409.70;2355.20
54946;DHT22;40846;44.788;20.486;2022-09-13T04:22:49;409.70;2355.20
54946;DHT22;40846;44.788;20.486;2022-09-13T04:25:15;409.90;2355.20
54946;DHT22;40846;44.788;20.486;2022-09-13T04:27:40;409.70;2355.20
54946;DHT22;40846;44.788;20.486;2022-09-13T04:32:32;409.70;2355.20
54946;DHT22;40846;44.788;20.486;2022-09-13T04:35:00;409.70;2355.20
54946;DHT22;40846;44.788;20.486;2022-09-13T04:37:26;409.60;2355.20
54946;DHT22;40846;44.788;20.486;2022-09-13T04:39:52;409.60;2355.20
54946;DHT22;40846;44.788;20.486;2022-09-13T04:42:18;409.60;2355.20
54946;DHT22;40846;44.788;20.486;2022-09-13T04:44:44;384.80;2329.60
54946;DHT22;40846;44.788;20.486;2022-09-13T04:47:09;384.80;2329.60
54946;DHT22;40846;44.788;20.486;2022-09-13T04:49:35;384.90;2329.60
54946;DHT22;40846;44.788;20.486;2022-09-13T04:52:01;384.80;2329.60
54946;DHT22;40846;44.788;20.486;2022-09-13T04:54:27;384.90;2329.60
54946;DHT22;40846;44.788;20.486;2022-09-13T04:56:53;409.60;2355.20
54946;DHT22;40846;44.788;20.486;2022-09-13T04:59:19;409.60;2355.20
54946;DHT22;40846;44.788;20.486;2022-09-13T05:01:45;409.70;2355.20
54946;DHT22;40846;44.788;20.486;2022-09-13T05:04:11;409.70;2355.20
54946;DHT22;40846;44.788;20.486;2022-09-13T05:06:37;409.80;2355.20
54946;DHT22;40846;44.788;20.486;2022-09-13T05:09:03;409.90;2355.20
54946;DHT22;40846;44.788;20.486;2022-09-13T05:11:29;410.00;2355.20
54946;DHT22;40846;44.788;20.486;2022-09-13T05:13:57;409.90;2355.20
54946;DHT22;40846;44.788;20.486;2022-09-13T05:16:29;409.90;2355.20
54946;DHT22;40846;44.788;20.486;2022-09-13T05:18:56;409.90;2355.20
54946;DHT22;40846;44.788;20.486;2022-09-13T05:21:22;409.90;2355.20
54946;DHT22;40846;44.788;20.486;2022-09-13T05:23:50;409.90;2355.20
54946;DHT22;40846;44.788;20.486;2022-09-13T05:26:16;410.00;2355.20
54946;DHT22;40846;44.788;20.486;2022-09-13T05:28:43;410.20;2355.20
54946;DHT22;40846;44.788;20.486;2022-09-13T05:31:18;410.00;2355.20
54946;DHT22;40846;44.788;20.486;2022-09-13T05:33:45;410.10;2355.20
54946;DHT22;40846;44.788;20.486;2022-09-13T05:36:11;410.00;2355.20
54946;DHT22;40846;44.788;20.486;2022-09-13T05:38:37;410.00;2355.20
54946;DHT22;40846;44.788;20.486;2022-09-13T05:41:04;410.00;2355.20
54946;DHT22;40846;44.788;20.486;2022-09-13T05:43:32;409.90;2355.20
54946;DHT22;40846;44.788;20.486;2022-09-13T05:46:13;410.00;2355.20
54946;DHT22;40846;44.788;20.486;2022-09-13T05:48:39;410.20;2355.20
54946;DHT22;40846;44.788;20.486;2022-09-13T05:51:09;410.10;2355.20
54946;DHT22;40846;44.788;20.486;2022-09-13T05:53:37;410.20;2355.20
54946;DHT22;40846;44.788;20.486;2022-09-13T05:56:05;410.20;2355.20
54946;DHT22;40846;44.788;20.486;2022-09-13T05:58:31;410.20;2355.20
54946;DHT22;40846;44.788;20.486;2022-09-13T06:00:58;410.10;2355.20
54946;DHT22;40846;44.788;20.486;2022-09-13T06:03:24;410.00;2355.20
54946;DHT22;40846;44.788;20.486;2022-09-13T06:05:54;410.10;2355.20
54946;DHT22;40846;44.788;20.486;2022-09-13T06:08:21;410.10;2355.20
54946;DHT22;40846;44.788;20.486;2022-09-13T06:10:57;410.10;2355.20
54946;DHT22;40846;44.788;20.486;2022-09-13T06:13:26;410.20;2355.20
54946;DHT22;40846;44.788;20.486;2022-09-13T06:15:53;410.20;2355.20
54946;DHT22;40846;44.788;20.486;2022-09-13T06:18:19;410.30;2355.20
54946;DHT22;40846;44.788;20.486;2022-09-13T06:20:45;410.30;2355.20
54946;DHT22;40846;44.788;20.486;2022-09-13T06:23:11;410.30;2355.20
54946;DHT22;40846;44.788;20.486;2022-09-13T06:25:37;410.30;2355.20
54946;DHT22;40846;44.788;20.486;2022-09-13T06:28:03;410.40;2355.20
54946;DHT22;40846;44.788;20.486;2022-09-13T06:32:58;435.30;2355.20
54946;DHT22;40846;44.788;20.486;2022-09-13T06:35:24;435.50;2355.20
54946;DHT22;40846;44.788;20.486;2022-09-13T06:37:56;435.50;2355.20
54946;DHT22;40846;44.788;20.486;2022-09-13T06:40:23;435.70;2355.20
54946;DHT22;40846;44.788;20.486;2022-09-13T06:42:49;435.90;2355.20
54946;DHT22;40846;44.788;20.486;2022-09-13T06:45:15;436.00;2355.20
54946;DHT22;40846;44.788;20.486;2022-09-13T06:47:41;436.10;2355.20
54946;DHT22;40846;44.788;20.486;2022-09-13T06:52:34;461.10;2380.80
54946;DHT22;40846;44.788;20.486;2022-09-13T06:54:59;461.40;2380.80
54946;DHT22;40846;44.788;20.486;2022-09-13T06:59:52;461.70;2380.80
54946;DHT22;40846;44.788;20.486;2022-09-13T07:02:17;486.40;2380.80
54946;DHT22;40846;44.788;20.486;2022-09-13T07:04:43;486.40;2380.80
54946;DHT22;40846;44.788;20.486;2022-09-13T07:16:54;512.00;2380.80
54946;DHT22;40846;44.788;20.486;2022-09-13T07:19:22;487.20;2380.80
54946;DHT22;40846;44.788;20.486;2022-09-13T07:24:16;512.40;2380.80
54946;DHT22;40846;44.788;20.486;2022-09-13T07:26:42;512.20;2380.80
54946;DHT22;40846;44.788;20.486;2022-09-13T07:29:11;512.20;2380.80
54946;DHT22;40846;44.788;20.486;2022-09-13T07:31:41;512.50;2380.80
54946;DHT22;40846;44.788;20.486;2022-09-13T07:39:20;537.60;2406.40
54946;DHT22;40846;44.788;20.486;2022-09-13T07:41:46;537.70;2406.40
54946;DHT22;40846;44.788;20.486;2022-09-13T07:46:39;537.90;2406.40
54946;DHT22;40846;44.788;20.486;2022-09-13T07:51:37;538.40;2406.40
54946;DHT22;40846;44.788;20.486;2022-09-13T07:54:06;563.20;2432.00
54946;DHT22;40846;44.788;20.486;2022-09-13T07:56:34;563.30;2432.00
54946;DHT22;40846;44.788;20.486;2022-09-13T07:59:02;563.70;2432.00
54946;DHT22;40846;44.788;20.486;2022-09-13T08:03:58;588.90;2432.00
54946;DHT22;40846;44.788;20.486;2022-09-13T08:06:25;589.00;2432.00
54946;DHT22;40846;44.788;20.486;2022-09-13T08:08:55;589.00;2432.00
54946;DHT22;40846;44.788;20.486;2022-09-13T08:11:37;589.10;2432.00
54946;DHT22;40846;44.788;20.486;2022-09-13T08:14:05;589.60;2432.00
54946;DHT22;40846;44.788;20.486;2022-09-13T08:16:32;614.50;2432.00
54946;DHT22;40846;44.788;20.486;2022-09-13T08:19:00;614.50;2406.40
54946;DHT22;40846;44.788;20.486;2022-09-13T08:21:34;615.20;2329.60
54946;DHT22;40846;44.788;20.486;2022-09-13T08:24:00;615.00;2252.80
54946;DHT22;40846;44.788;20.486;2022-09-13T08:26:27;615.10;2252.80
54946;DHT22;40846;44.788;20.486;2022-09-13T08:29:01;640.30;2176.00
54946;DHT22;40846;44.788;20.486;2022-09-13T08:31:28;640.80;2150.40
54946;DHT22;40846;44.788;20.486;2022-09-13T08:33:54;665.90;2073.60
54946;DHT22;40846;44.788;20.486;2022-09-13T08:36:21;666.00;2022.40
54946;DHT22;40846;44.788;20.486;2022-09-13T08:38:51;666.20;1920.00
54946;DHT22;40846;44.788;20.486;2022-09-13T08:51:51;717.00;1638.40
54946;DHT22;40846;44.788;20.486;2022-09-13T08:54:19;717.40;1587.20
54946;DHT22;40846;44.788;20.486;2022-09-13T10:00:27;666.40;1331.20
54946;DHT22;40846;44.788;20.486;2022-09-13T10:03:01;666.30;1356.80
54946;DHT22;40846;44.788;20.486;2022-09-13T10:05:28;640.70;1331.20
54946;DHT22;40846;44.788;20.486;2022-09-13T10:08:04;640.20;1356.80
54946;DHT22;40846;44.788;20.486;2022-09-13T10:13:20;640.00;1356.80
54946;DHT22;40846;44.788;20.486;2022-09-13T10:15:57;615.10;1382.40
54946;DHT22;40846;44.788;20.486;2022-09-13T10:18:24;614.90;1331.20
54946;DHT22;40846;44.788;20.486;2022-09-13T10:23:29;614.50;1331.20
54946;DHT22;40846;44.788;20.486;2022-09-13T10:26:04;614.60;1331.20
54946;DHT22;40846;44.788;20.486;2022-09-13T10:28:43;614.50;1331.20
54946;DHT22;40846;44.788;20.486;2022-09-13T10:31:13;614.40;1356.80
54946;DHT22;40846;44.788;20.486;2022-09-13T10:36:17;614.40;1408.00
54946;DHT22;40846;44.788;20.486;2022-09-13T10:39:11;614.40;1433.60
54946;DHT22;40846;44.788;20.486;2022-09-13T10:41:46;589.70;1433.60
54946;DHT22;40846;44.788;20.486;2022-09-13T10:47:05;589.70;1459.20
54946;DHT22;40846;44.788;20.486;2022-09-13T11:09:16;589.50;1459.20
54946;DHT22;40846;44.788;20.486;2022-09-13T11:35:35;589.50;1433.60
54946;DHT22;40846;44.788;20.486;2022-09-13T11:41:11;589.50;1433.60
54946;DHT22;40846;44.788;20.486;2022-09-13T11:43:47;589.50;1408.00
54946;DHT22;40846;44.788;20.486;2022-09-13T11:57:40;589.40;1433.60
54946;DHT22;40846;44.788;20.486;2022-09-13T12:00:22;589.40;1433.60
54946;DHT22;40846;44.788;20.486;2022-09-13T12:03:00;589.40;1459.20
54946;DHT22;40846;44.788;20.486;2022-09-13T12:05:40;589.50;1433.60
54946;DHT22;40846;44.788;20.486;2022-09-13T12:08:21;589.50;1433.60
54946;DHT22;40846;44.788;20.486;2022-09-13T12:10:53;589.40;1433.60
54946;DHT22;40846;44.788;20.486;2022-09-13T12:13:31;589.50;1433.60
54946;DHT22;40846;44.788;20.486;2022-09-13T12:16:06;589.40;1433.60
54946;DHT22;40846;44.788;20.486;2022-09-13T12:18:45;589.40;1433.60
54946;DHT22;40846;44.788;20.486;2022-09-13T12:21:30;589.50;1433.60
54946;DHT22;40846;44.788;20.486;2022-09-13T12:26:40;589.60;1459.20
54946;DHT22;40846;44.788;20.486;2022-09-13T12:29:18;589.70;1433.60
54946;DHT22;40846;44.788;20.486;2022-09-13T12:31:45;614.40;1433.60
54946;DHT22;40846;44.788;20.486;2022-09-13T12:34:23;614.50;1433.60
54946;DHT22;40846;44.788;20.486;2022-09-13T12:50:28;614.70;1408.00
54946;DHT22;40846;44.788;20.486;2022-09-13T12:59:02;614.50;1408.00
54946;DHT22;40846;44.788;20.486;2022-09-13T13:01:35;614.60;1433.60
54946;DHT22;40846;44.788;20.486;2022-09-13T13:04:08;614.70;1433.60
54946;DHT22;40846;44.788;20.486;2022-09-13T13:09:28;614.80;1408.00
54946;DHT22;40846;44.788;20.486;2022-09-13T13:11:52;615.00;1433.60
54946;DHT22;40846;44.788;20.486;2022-09-13T13:19:59;614.90;1433.60
54946;DHT22;40846;44.788;20.486;2022-09-13T13:25:52;614.80;1433.60
54946;DHT22;40846;44.788;20.486;2022-09-13T13:28:49;614.80;1459.20
54946;DHT22;40846;44.788;20.486;2022-09-13T13:36:31;614.70;1459.20
54946;DHT22;40846;44.788;20.486;2022-09-13T13:41:58;614.80;1484.80
54946;DHT22;40846;44.788;20.486;2022-09-13T13:57:23;614.90;1484.80
54946;DHT22;40846;44.788;20.486;2022-09-13T14:00:14;614.90;1459.20
54946;DHT22;40846;44.788;20.486;2022-09-13T14:03:22;614.70;1459.20
54946;DHT22;40846;44.788;20.486;2022-09-13T14:11:23;614.60;1510.40
54946;DHT22;40846;44.788;20.486;2022-09-13T14:25:13;614.70;1510.40
54946;DHT22;40846;44.788;20.486;2022-09-13T14:27:41;614.60;1510.40
54946;DHT22;40846;44.788;20.486;2022-09-13T14:30:30;614.60;1510.40
54946;DHT22;40846;44.788;20.486;2022-09-13T14:32:57;614.60;1510.40
54946;DHT22;40846;44.788;20.486;2022-09-13T14:37:54;614.90;1510.40
54946;DHT22;40846;44.788;20.486;2022-09-13T14:40:24;614.60;1510.40
54946;DHT22;40846;44.788;20.486;2022-09-13T14:42:54;614.50;1510.40
54946;DHT22;40846;44.788;20.486;2022-09-13T14:45:26;614.60;1510.40
54946;DHT22;40846;44.788;20.486;2022-09-13T14:50:35;614.40;1561.60
54946;DHT22;40846;44.788;20.486;2022-09-13T14:53:09;614.50;1536.00
54946;DHT22;40846;44.788;20.486;2022-09-13T14:55:40;614.50;1536.00
54946;DHT22;40846;44.788;20.486;2022-09-13T14:58:14;614.50;1561.60
54946;DHT22;40846;44.788;20.486;2022-09-13T15:01:37;614.50;1536.00
54946;DHT22;40846;44.788;20.486;2022-09-13T15:04:07;614.40;1536.00
54946;DHT22;40846;44.788;20.486;2022-09-13T15:06:37;589.60;1536.00
54946;DHT22;40846;44.788;20.486;2022-09-13T15:11:39;589.70;1561.60
54946;DHT22;40846;44.788;20.486;2022-09-13T15:14:28;589.70;1561.60
54946;DHT22;40846;44.788;20.486;2022-09-13T15:17:14;614.40;1587.20
54946;DHT22;40846;44.788;20.486;2022-09-13T15:20:04;614.40;1561.60
54946;DHT22;40846;44.788;20.486;2022-09-13T15:22:33;614.40;1561.60
54946;DHT22;40846;44.788;20.486;2022-09-13T15:25:01;614.50;1536.00
54946;DHT22;40846;44.788;20.486;2022-09-13T15:30:00;614.50;1587.20
54946;DHT22;40846;44.788;20.486;2022-09-13T15:32:48;614.50;1561.60
54946;DHT22;40846;44.788;20.486;2022-09-13T15:35:27;614.50;1587.20
54946;DHT22;40846;44.788;20.486;2022-09-13T15:38:13;614.50;1561.60
54946;DHT22;40846;44.788;20.486;2022-09-13T15:40:45;614.60;1561.60
54946;DHT22;40846;44.788;20.486;2022-09-13T15:43:11;614.70;1561.60
54946;DHT22;40846;44.788;20.486;2022-09-13T15:45:36;614.60;1561.60
54946;DHT22;40846;44.788;20.486;2022-09-13T15:48:02;614.60;1561.60
54946;DHT22;40846;44.788;20.486;2022-09-13T15:50:30;614.50;1561.60
54946;DHT22;40846;44.788;20.486;2022-09-13T15:52:59;614.50;1587.20
54946;DHT22;40846;44.788;20.486;2022-09-13T15:55:26;614.50;1561.60
54946;DHT22;40846;44.788;20.486;2022-09-13T15:57:52;614.50;1587.20
54946;DHT22;40846;44.788;20.486;2022-09-13T16:00:23;614.60;1587.20
54946;DHT22;40846;44.788;20.486;2022-09-13T16:02:49;614.60;1587.20
54946;DHT22;40846;44.788;20.486;2022-09-13T16:05:15;614.50;1587.20
54946;DHT22;40846;44.788;20.486;2022-09-13T16:07:41;614.50;1587.20
54946;DHT22;40846;44.788;20.486;2022-09-13T16:10:27;614.60;1587.20
54946;DHT22;40846;44.788;20.486;2022-09-13T16:12:53;614.60;1612.80
54946;DHT22;40846;44.788;20.486;2022-09-13T16:15:19;614.60;1638.40
54946;DHT22;40846;44.788;20.486;2022-09-13T16:17:45;614.60;1612.80
54946;DHT22;40846;44.788;20.486;2022-09-13T16:20:15;614.60;1638.40
54946;DHT22;40846;44.788;20.486;2022-09-13T16:22:41;614.70;1612.80
54946;DHT22;40846;44.788;20.486;2022-09-13T16:25:10;614.70;1612.80
54946;DHT22;40846;44.788;20.486;2022-09-13T16:27:37;614.50;1612.80
54946;DHT22;40846;44.788;20.486;2022-09-13T16:30:04;614.50;1612.80
54946;DHT22;40846;44.788;20.486;2022-09-13T16:32:30;614.50;1638.40
54946;DHT22;40846;44.788;20.486;2022-09-13T16:34:55;614.40;1664.00
54946;DHT22;40846;44.788;20.486;2022-09-13T16:37:22;589.70;1664.00
54946;DHT22;40846;44.788;20.486;2022-09-13T16:39:48;589.70;1664.00
54946;DHT22;40846;44.788;20.486;2022-09-13T16:42:14;589.60;1664.00
54946;DHT22;40846;44.788;20.486;2022-09-13T16:44:42;589.50;1689.60
54946;DHT22;40846;44.788;20.486;2022-09-13T16:47:08;589.60;1689.60
54946;DHT22;40846;44.788;20.486;2022-09-13T16:49:34;589.60;1689.60
54946;DHT22;40846;44.788;20.486;2022-09-13T16:52:00;589.60;1689.60
54946;DHT22;40846;44.788;20.486;2022-09-13T16:54:27;589.60;1689.60
54946;DHT22;40846;44.788;20.486;2022-09-13T16:56:55;589.50;1894.40
54946;DHT22;40846;44.788;20.486;2022-09-13T16:59:41;589.50;1740.80
54946;DHT22;40846;44.788;20.486;2022-09-13T17:02:11;589.40;1766.40
54946;DHT22;40846;44.788;20.486;2022-09-13T17:04:36;589.40;1766.40
54946;DHT22;40846;44.788;20.486;2022-09-13T17:07:02;589.40;1740.80
54946;DHT22;40846;44.788;20.486;2022-09-13T17:09:30;589.40;1766.40
54946;DHT22;40846;44.788;20.486;2022-09-13T17:11:57;589.20;1740.80
54946;DHT22;40846;44.788;20.486;2022-09-13T17:14:23;589.20;1766.40
54946;DHT22;40846;44.788;20.486;2022-09-13T17:16:51;589.30;1766.40
54946;DHT22;40846;44.788;20.486;2022-09-13T17:19:23;589.20;1792.00
54946;DHT22;40846;44.788;20.486;2022-09-13T17:21:50;589.10;1792.00
54946;DHT22;40846;44.788;20.486;2022-09-13T17:24:16;589.10;1817.60
54946;DHT22;40846;44.788;20.486;2022-09-13T17:26:43;589.10;1843.20
54946;DHT22;40846;44.788;20.486;2022-09-13T17:29:13;588.90;1843.20
54946;DHT22;40846;44.788;20.486;2022-09-13T17:31:39;588.90;1843.20
54946;DHT22;40846;44.788;20.486;2022-09-13T17:34:05;588.90;1868.80
54946;DHT22;40846;44.788;20.486;2022-09-13T17:36:30;589.00;1894.40
54946;DHT22;40846;44.788;20.486;2022-09-13T17:38:57;564.10;1894.40
54946;DHT22;40846;44.788;20.486;2022-09-13T17:41:24;564.00;1920.00
54946;DHT22;40846;44.788;20.486;2022-09-13T17:43:50;563.90;1920.00
54946;DHT22;40846;44.788;20.486;2022-09-13T17:46:20;563.90;1945.60
54946;DHT22;40846;44.788;20.486;2022-09-13T17:48:47;563.90;1945.60
54946;DHT22;40846;44.788;20.486;2022-09-13T17:51:16;563.80;1971.20
54946;DHT22;40846;44.788;20.486;2022-09-13T17:53:48;563.80;1996.80
54946;DHT22;40846;44.788;20.486;2022-09-13T17:56:22;563.80;1996.80
54946;DHT22;40846;44.788;20.486;2022-09-13T17:58:50;563.70;2022.40
54946;DHT22;40846;44.788;20.486;2022-09-13T18:01:16;563.60;2022.40
54946;DHT22;40846;44.788;20.486;2022-09-13T18:03:42;563.50;2048.00
54946;DHT22;40846;44.788;20.486;2022-09-13T18:06:09;563.50;2048.00
54946;DHT22;40846;44.788;20.486;2022-09-13T18:08:37;563.50;2073.60
54946;DHT22;40846;44.788;20.486;2022-09-13T18:11:05;563.50;2073.60
54946;DHT22;40846;44.788;20.486;2022-09-13T18:13:32;563.50;2099.20
54946;DHT22;40846;44.788;20.486;2022-09-13T18:16:06;563.30;2124.80
54946;DHT22;40846;44.788;20.486;2022-09-13T18:18:36;538.50;2099.20
54946;DHT22;40846;44.788;20.486;2022-09-13T18:21:03;538.20;2150.40
54946;DHT22;40846;44.788;20.486;2022-09-13T18:23:29;538.20;2150.40
54946;DHT22;40846;44.788;20.486;2022-09-13T18:26:02;538.00;2150.40
54946;DHT22;40846;44.788;20.486;2022-09-13T18:28:29;538.00;2150.40
54946;DHT22;40846;44.788;20.486;2022-09-13T18:30:57;538.00;2150.40
54946;DHT22;40846;44.788;20.486;2022-09-13T18:33:27;538.10;2150.40
54946;DHT22;40846;44.788;20.486;2022-09-13T18:38:24;538.20;2227.20
54946;DHT22;40846;44.788;20.486;2022-09-13T18:44:18;538.10;2355.20
54946;DHT22;40846;44.788;20.486;2022-09-13T18:47:07;538.00;2406.40
54946;DHT22;40846;44.788;20.486;2022-09-13T18:49:37;538.00;2406.40
54946;DHT22;40846;44.788;20.486;2022-09-13T18:52:03;537.90;2406.40
54946;DHT22;40846;44.788;20.486;2022-09-13T18:54:28;538.00;2406.40
54946;DHT22;40846;44.788;20.486;2022-09-13T19:00:16;537.90;2406.40
54946;DHT22;40846;44.788;20.486;2022-09-13T19:02:42;537.70;2406.40
54946;DHT22;40846;44.788;20.486;2022-09-13T19:05:08;537.70;2380.80
54946;DHT22;40846;44.788;20.486;2022-09-13T19:07:35;537.70;2355.20
54946;DHT22;40846;44.788;20.486;2022-09-13T19:10:01;537.70;2355.20
54946;DHT22;40846;44.788;20.486;2022-09-13T19:12:26;537.70;2355.20
54946;DHT22;40846;44.788;20.486;2022-09-13T19:14:52;537.70;2355.20
54946;DHT22;40846;44.788;20.486;2022-09-13T19:17:18;537.60;2355.20
54946;DHT22;40846;44.788;20.486;2022-09-13T19:19:43;512.90;2380.80
54946;DHT22;40846;44.788;20.486;2022-09-13T19:22:11;512.80;2380.80
54946;DHT22;40846;44.788;20.486;2022-09-13T19:24:36;512.70;2380.80
54946;DHT22;40846;44.788;20.486;2022-09-13T19:27:02;512.70;2380.80
54946;DHT22;40846;44.788;20.486;2022-09-13T19:29:28;512.70;2380.80
54946;DHT22;40846;44.788;20.486;2022-09-13T19:31:54;512.70;2380.80
54946;DHT22;40846;44.788;20.486;2022-09-13T19:34:21;512.60;2380.80
54946;DHT22;40846;44.788;20.486;2022-09-13T19:36:47;512.50;2380.80
54946;DHT22;40846;44.788;20.486;2022-09-13T19:39:15;512.40;2380.80
54946;DHT22;40846;44.788;20.486;2022-09-13T19:41:41;512.50;2380.80
54946;DHT22;40846;44.788;20.486;2022-09-13T19:44:07;512.60;2380.80
54946;DHT22;40846;44.788;20.486;2022-09-13T19:46:37;512.60;2380.80
54946;DHT22;40846;44.788;20.486;2022-09-13T19:49:03;512.60;2380.80
54946;DHT22;40846;44.788;20.486;2022-09-13T19:51:34;512.60;2380.80
54946;DHT22;40846;44.788;20.486;2022-09-13T19:54:00;512.60;2380.80
54946;DHT22;40846;44.788;20.486;2022-09-13T19:56:29;512.60;2380.80
54946;DHT22;40846;44.788;20.486;2022-09-13T19:58:56;512.60;2380.80
54946;DHT22;40846;44.788;20.486;2022-09-13T20:01:24;512.70;2380.80
54946;DHT22;40846;44.788;20.486;2022-09-13T20:03:58;512.60;2380.80
54946;DHT22;40846;44.788;20.486;2022-09-13T20:06:26;512.60;2380.80
54946;DHT22;40846;44.788;20.486;2022-09-13T20:08:56;512.50;2380.80
54946;DHT22;40846;44.788;20.486;2022-09-13T20:11:22;512.40;2380.80
54946;DHT22;40846;44.788;20.486;2022-09-13T20:13:50;512.50;2380.80
54946;DHT22;40846;44.788;20.486;2022-09-13T20:16:22;512.50;2380.80
54946;DHT22;40846;44.788;20.486;2022-09-13T20:18:49;512.50;2380.80
54946;DHT22;40846;44.788;20.486;2022-09-13T20:21:15;512.50;2380.80
54946;DHT22;40846;44.788;20.486;2022-09-13T20:23:45;512.50;2380.80
54946;DHT22;40846;44.788;20.486;2022-09-13T20:26:18;512.50;2380.80
54946;DHT22;40846;44.788;20.486;2022-09-13T20:28:45;512.50;2380.80
54946;DHT22;40846;44.788;20.486;2022-09-13T20:31:13;512.40;2380.80